createdAt,value
2018-03-02T00:02:15.017Z,81.30
2018-03-02T00:04:41.551Z,80.80
2018-03-02T00:07:08.115Z,81.30
2018-03-02T00:09:34.530Z,81.20
2018-03-02T00:12:00.993Z,80.50
2018-03-02T00:14:27.437Z,80.70
2018-03-02T00:16:54.773Z,80.50
2018-03-02T00:19:21.187Z,80.60
2018-03-02T00:21:47.966Z,80.70
2018-03-02T00:24:14.404Z,80.20
2018-03-02T00:26:40.901Z,80.00
2018-03-02T00:29:07.368Z,80.60
2018-03-02T00:31:33.782Z,81.10
2018-03-02T00:34:00.167Z,81.20
2018-03-02T00:36:26.664Z,80.50
2018-03-02T00:38:53.835Z,80.80
2018-03-02T00:41:21.027Z,80.30
2018-03-02T00:43:47.504Z,80.30
2018-03-02T00:46:14.642Z,80.90
2018-03-02T00:48:41.154Z,80.10
2018-03-02T00:51:07.945Z,80.20
2018-03-02T00:53:34.417Z,80.10
2018-03-02T00:56:00.845Z,80.30
2018-03-02T00:58:27.328Z,80.60
2018-03-02T01:00:54.505Z,79.70
2018-03-02T01:03:20.985Z,79.60
2018-03-02T01:05:47.406Z,79.70
2018-03-02T01:08:13.812Z,79.70
2018-03-02T01:10:40.251Z,79.80
2018-03-02T01:13:06.696Z,79.60
2018-03-02T01:15:33.115Z,79.50
2018-03-02T01:17:59.610Z,79.80
2018-03-02T01:20:26.115Z,79.50
2018-03-02T01:22:52.612Z,79.50
2018-03-02T01:25:19.796Z,79.30
2018-03-02T01:27:46.646Z,79.20
2018-03-02T01:30:13.177Z,79.40
2018-03-02T01:32:39.713Z,79.70
2018-03-02T01:35:06.213Z,79.60
2018-03-02T01:37:32.653Z,80.20
2018-03-02T01:39:59.086Z,79.70
2018-03-02T01:42:25.679Z,79.70
2018-03-02T01:44:52.129Z,79.70
2018-03-02T01:47:19.289Z,80.10
2018-03-02T01:49:46.847Z,79.90
2018-03-02T01:52:13.237Z,79.80
2018-03-02T01:54:39.702Z,79.70
2018-03-02T01:57:06.189Z,80.10
2018-03-02T01:59:32.584Z,80.20
2018-03-02T02:01:59.753Z,79.50
2018-03-02T02:04:26.272Z,79.50
2018-03-02T02:06:53.445Z,79.70
2018-03-02T02:09:19.876Z,79.70
2018-03-02T02:11:46.307Z,79.80
2018-03-02T02:14:12.745Z,79.70
2018-03-02T02:16:39.141Z,79.60
2018-03-02T02:19:05.652Z,80.00
2018-03-02T02:21:32.136Z,80.00
2018-03-02T02:23:58.628Z,79.70
2018-03-02T02:26:25.148Z,79.60
2018-03-02T02:28:51.681Z,80.10
2018-03-02T02:31:18.131Z,79.60
2018-03-02T02:33:44.593Z,79.70
2018-03-02T02:36:11.078Z,79.90
2018-03-02T02:38:37.493Z,79.80
2018-03-02T02:41:03.986Z,80.30
2018-03-02T02:43:30.526Z,79.90
2018-03-02T02:45:56.937Z,79.50
2018-03-02T02:48:23.512Z,79.50
2018-03-02T02:50:49.999Z,79.30
2018-03-02T02:53:16.517Z,79.70
2018-03-02T02:55:43.043Z,79.70
2018-03-02T02:58:09.567Z,79.80
2018-03-02T03:00:36.027Z,79.50
2018-03-02T03:03:02.524Z,79.50
2018-03-02T03:05:29.060Z,79.60
2018-03-02T03:07:56.250Z,79.70
2018-03-02T03:10:22.708Z,79.60
2018-03-02T03:12:49.132Z,79.50
2018-03-02T03:15:15.661Z,80.10
2018-03-02T03:17:42.374Z,79.90
2018-03-02T03:20:08.911Z,79.60
2018-03-02T03:22:35.354Z,79.50
2018-03-02T03:25:01.886Z,79.90
2018-03-02T03:27:28.317Z,79.70
2018-03-02T03:29:54.760Z,79.50
2018-03-02T03:32:22.022Z,79.60
2018-03-02T03:34:48.544Z,79.60
2018-03-02T03:37:15.021Z,79.20
2018-03-02T03:39:41.576Z,79.50
2018-03-02T03:42:08.801Z,79.70
2018-03-02T03:44:35.299Z,79.50
2018-03-02T03:47:02.023Z,79.60
2018-03-02T03:49:28.524Z,79.50
2018-03-02T03:51:55.005Z,79.50
2018-03-02T03:54:21.413Z,79.70
2018-03-02T03:56:48.563Z,79.70
2018-03-02T03:59:15.849Z,79.70
2018-03-02T04:01:42.258Z,79.60
2018-03-02T04:04:09.523Z,79.70
2018-03-02T04:06:36.160Z,79.60
2018-03-02T04:09:02.587Z,79.80
2018-03-02T04:11:29.749Z,80.00
2018-03-02T04:13:56.280Z,80.00
2018-03-02T04:16:22.843Z,80.20
2018-03-02T04:18:49.297Z,79.80
2018-03-02T04:21:15.755Z,79.50
2018-03-02T04:23:42.197Z,79.50
2018-03-02T04:26:09.456Z,79.60
2018-03-02T04:28:36.646Z,79.70
2018-03-02T04:31:03.089Z,79.60
2018-03-02T04:33:29.503Z,79.50
2018-03-02T04:35:55.981Z,79.90
2018-03-02T04:38:22.551Z,79.80
2018-03-02T04:40:48.941Z,79.50
2018-03-02T04:43:15.381Z,79.70
2018-03-02T04:45:41.829Z,79.40
2018-03-02T04:48:08.377Z,79.80
2018-03-02T04:50:35.766Z,80.00
2018-03-02T04:53:02.237Z,80.00
2018-03-02T04:55:28.664Z,80.50
2018-03-02T04:57:55.297Z,79.70
2018-03-02T05:00:21.741Z,79.80
2018-03-02T05:02:48.143Z,80.10
2018-03-02T05:05:14.790Z,80.20
2018-03-02T05:07:41.446Z,80.20
2018-03-02T05:10:07.844Z,79.70
2018-03-02T05:12:34.357Z,79.70
2018-03-02T05:15:00.869Z,79.70
2018-03-02T05:17:28.045Z,79.70
2018-03-02T05:19:55.292Z,80.70
2018-03-02T05:22:22.476Z,79.80
2018-03-02T05:24:48.938Z,79.80
2018-03-02T05:27:15.444Z,79.90
2018-03-02T05:29:41.884Z,80.20
2018-03-02T05:32:08.517Z,79.80
2018-03-02T05:34:35.046Z,79.30
2018-03-02T05:37:01.451Z,79.60
2018-03-02T05:39:28.643Z,79.00
2018-03-02T05:41:55.142Z,79.00
2018-03-02T05:44:21.553Z,79.00
2018-03-02T05:46:48.025Z,79.70
2018-03-02T05:49:14.466Z,79.50
2018-03-02T05:51:41.612Z,78.50
2018-03-02T05:54:08.165Z,78.40
2018-03-02T05:56:34.658Z,78.20
2018-03-02T05:59:01.863Z,78.20
2018-03-02T06:01:28.337Z,78.10
2018-03-02T06:03:54.815Z,78.10
2018-03-02T06:06:21.313Z,77.90
2018-03-02T06:08:48.488Z,77.80
2018-03-02T06:11:14.981Z,77.70
2018-03-02T06:13:41.561Z,77.10
2018-03-02T06:16:08.042Z,76.90
2018-03-02T06:18:34.611Z,77.00
2018-03-02T06:21:01.838Z,76.80
2018-03-02T06:23:28.280Z,76.80
2018-03-02T06:25:54.766Z,76.80
2018-03-02T06:28:21.173Z,76.50
2018-03-02T06:30:48.453Z,75.90
2018-03-02T06:33:15.014Z,75.80
2018-03-02T06:35:41.646Z,76.10
2018-03-02T06:38:08.265Z,75.90
2018-03-02T06:40:34.997Z,75.70
2018-03-02T06:43:01.555Z,75.20
2018-03-02T06:45:27.992Z,75.40
2018-03-02T06:47:54.559Z,75.00
2018-03-02T06:50:21.082Z,75.10
2018-03-02T06:52:47.601Z,74.20
2018-03-02T06:55:14.131Z,73.70
2018-03-02T06:57:40.726Z,73.80
2018-03-02T07:00:07.229Z,73.80
2018-03-02T07:02:34.484Z,73.60
2018-03-02T07:05:01.211Z,73.60
2018-03-02T07:07:27.746Z,74.20
2018-03-02T07:09:54.377Z,73.40
2018-03-02T07:12:20.906Z,73.10
2018-03-02T07:14:47.377Z,73.40
2018-03-02T07:17:15.222Z,72.20
2018-03-02T07:19:41.884Z,72.20
2018-03-02T07:22:08.855Z,72.20
2018-03-02T07:24:36.096Z,72.60
2018-03-02T07:27:02.589Z,72.60
2018-03-02T07:29:29.097Z,73.40
2018-03-02T07:31:55.670Z,74.40
2018-03-02T07:34:23.008Z,74.10
2018-03-02T07:36:49.595Z,74.00
2018-03-02T07:39:16.991Z,74.10
2018-03-02T07:41:43.478Z,74.00
2018-03-02T07:44:10.718Z,74.40
2018-03-02T07:46:37.987Z,74.80
2018-03-02T07:49:04.467Z,74.80
2018-03-02T07:51:30.975Z,75.10
2018-03-02T07:53:58.258Z,74.80
2018-03-02T07:56:24.770Z,74.70
2018-03-02T07:58:51.263Z,74.10
2018-03-02T08:01:17.745Z,74.30
2018-03-02T08:03:44.244Z,74.70
2018-03-02T08:06:10.745Z,75.10
2018-03-02T08:08:37.590Z,74.90
2018-03-02T08:11:04.073Z,74.70
2018-03-02T08:13:30.625Z,73.70
2018-03-02T08:15:57.882Z,75.00
2018-03-02T08:18:24.375Z,75.00
2018-03-02T08:20:51.696Z,74.20
2018-03-02T08:23:18.204Z,74.00
2018-03-02T08:25:44.817Z,74.40
2018-03-02T08:28:11.339Z,75.70
2018-03-02T08:30:37.844Z,74.00
2018-03-02T08:33:04.450Z,74.90
2018-03-02T08:35:31.637Z,74.40
2018-03-02T08:37:58.240Z,74.30
2018-03-02T08:40:24.832Z,74.10
2018-03-02T08:42:51.357Z,74.10
2018-03-02T08:45:18.090Z,74.80
2018-03-02T08:47:44.621Z,74.60
2018-03-02T08:50:11.179Z,74.00
2018-03-02T08:52:37.670Z,74.70
2018-03-02T08:55:05.134Z,74.80
2018-03-02T08:57:31.596Z,74.80
2018-03-02T09:00:02.499Z,74.10
2018-03-02T09:02:29.003Z,74.10
2018-03-02T09:04:55.558Z,73.20
2018-03-02T09:07:22.100Z,74.20
2018-03-02T09:09:48.708Z,73.50
2018-03-02T09:12:15.418Z,73.70
2018-03-02T09:14:42.289Z,73.10
2018-03-02T09:17:08.738Z,73.90
2018-03-02T09:19:35.163Z,73.50
2018-03-02T09:22:01.852Z,73.50
2018-03-02T09:24:28.323Z,74.10
2018-03-02T09:26:54.774Z,73.40
2018-03-02T09:29:21.674Z,72.10
2018-03-02T09:31:48.942Z,72.70
2018-03-02T09:34:15.505Z,72.60
2018-03-02T09:36:42.184Z,73.20
2018-03-02T09:39:08.800Z,73.20
2018-03-02T09:41:36.180Z,72.20
2018-03-02T09:44:02.779Z,72.20
2018-03-02T09:46:29.277Z,73.50
2018-03-02T09:48:55.912Z,72.90
2018-03-02T09:51:22.380Z,72.40
2018-03-02T09:53:48.802Z,72.40
2018-03-02T09:56:15.287Z,72.10
2018-03-02T09:58:41.937Z,71.90
2018-03-02T10:01:08.464Z,72.70
2018-03-02T10:03:34.899Z,72.70
2018-03-02T10:06:01.401Z,73.60
2018-03-02T10:08:28.785Z,73.80
2018-03-02T10:10:55.207Z,73.70
2018-03-02T10:13:21.813Z,73.70
2018-03-02T10:15:48.361Z,73.90
2018-03-02T10:18:14.851Z,74.20
2018-03-02T10:20:41.568Z,74.50
2018-03-02T10:23:08.174Z,74.30
2018-03-02T10:25:35.611Z,75.80
2018-03-02T10:28:02.090Z,75.80
2018-03-02T10:30:28.546Z,76.60
2018-03-02T10:32:55.032Z,76.40
2018-03-02T10:35:21.523Z,74.40
2018-03-02T10:37:47.965Z,74.80
2018-03-02T10:40:14.560Z,75.30
2018-03-02T10:42:42.837Z,74.20
2018-03-02T10:45:09.272Z,74.20
2018-03-02T10:47:35.823Z,74.00
2018-03-02T10:50:02.345Z,72.80
2018-03-02T10:52:29.102Z,72.10
2018-03-02T10:54:55.543Z,73.50
2018-03-02T10:57:22.112Z,73.70
2018-03-02T10:59:49.538Z,75.40
2018-03-02T11:02:20.917Z,75.40
2018-03-02T11:04:47.427Z,76.90
2018-03-02T11:07:13.932Z,77.20
2018-03-02T11:09:41.319Z,77.00
2018-03-02T11:12:07.926Z,77.00
2018-03-02T11:14:34.595Z,78.00
2018-03-02T11:17:01.181Z,78.60
2018-03-02T11:19:27.673Z,78.60
2018-03-02T11:21:54.202Z,83.50
2018-03-02T11:24:20.838Z,81.50
2018-03-02T11:26:47.271Z,78.70
2018-03-02T11:29:13.913Z,78.50
2018-03-02T11:31:41.474Z,78.40
2018-03-02T11:34:07.903Z,78.40
2018-03-02T11:36:35.185Z,78.60
2018-03-02T11:39:01.804Z,78.60
2018-03-02T11:41:28.400Z,78.90
2018-03-02T11:43:55.715Z,78.80
2018-03-02T11:46:23.716Z,79.80
2018-03-02T11:48:51.042Z,79.90
2018-03-02T11:51:17.633Z,79.80
2018-03-02T11:53:44.161Z,79.00
2018-03-02T11:56:10.733Z,78.80
2018-03-02T11:58:37.289Z,79.00
2018-03-02T12:01:03.796Z,78.90
2018-03-02T12:03:30.460Z,79.50
2018-03-02T12:05:56.840Z,79.60
2018-03-02T12:08:23.356Z,79.80
2018-03-02T12:10:51.183Z,79.10
2018-03-02T12:13:17.709Z,79.00
2018-03-02T12:15:44.386Z,79.30
2018-03-02T12:18:11.233Z,79.70
2018-03-02T12:20:38.426Z,79.10
2018-03-02T12:23:04.878Z,79.00
2018-03-02T12:25:32.230Z,78.40
2018-03-02T12:27:58.974Z,78.50
2018-03-02T12:30:26.132Z,78.20
2018-03-02T12:32:52.579Z,78.40
2018-03-02T12:35:19.195Z,78.40
2018-03-02T12:37:45.664Z,78.00
2018-03-02T12:40:12.088Z,78.10
2018-03-02T12:42:38.689Z,75.30
2018-03-02T12:45:05.346Z,75.50
2018-03-02T12:47:32.606Z,75.90
2018-03-02T12:49:59.137Z,75.80
2018-03-02T12:52:25.736Z,75.50
2018-03-02T12:54:52.363Z,75.30
2018-03-02T12:57:18.818Z,76.10
2018-03-02T12:59:45.284Z,75.00
2018-03-02T13:02:11.806Z,71.80
2018-03-02T13:04:38.340Z,70.60
2018-03-02T13:07:04.860Z,69.80
2018-03-02T13:09:31.296Z,68.90
2018-03-02T13:11:57.743Z,67.80
2018-03-02T13:14:24.209Z,67.40
2018-03-02T13:16:50.756Z,68.40
2018-03-02T13:19:17.986Z,66.00
2018-03-02T13:21:44.490Z,65.90
2018-03-02T13:24:11.089Z,66.80
2018-03-02T13:26:49.841Z,67.90
2018-03-02T13:29:16.360Z,68.50
2018-03-02T13:31:42.890Z,70.60
2018-03-02T13:34:21.470Z,71.60
2018-03-02T13:36:49.133Z,72.40
2018-03-02T13:39:27.721Z,72.50
2018-03-02T13:42:01.135Z,74.30
2018-03-02T13:44:27.677Z,74.90
2018-03-02T13:46:54.299Z,74.20
2018-03-02T13:49:32.825Z,73.10
2018-03-02T13:51:59.304Z,74.60
2018-03-02T13:54:25.796Z,74.60
2018-03-02T13:57:04.406Z,74.80
2018-03-02T13:59:30.937Z,74.30
2018-03-02T14:01:57.433Z,73.40
2018-03-02T14:04:35.880Z,73.70
2018-03-02T14:07:02.393Z,73.80
2018-03-02T14:09:29.012Z,73.20
2018-03-02T14:11:55.640Z,74.40
2018-03-02T14:14:22.868Z,73.20
2018-03-02T14:16:49.296Z,73.20
2018-03-02T14:19:15.801Z,73.20
2018-03-02T14:21:42.224Z,73.00
2018-03-02T14:24:08.710Z,73.50
2018-03-02T14:26:35.260Z,74.80
2018-03-02T14:29:01.687Z,74.80
2018-03-02T14:31:28.184Z,73.80
2018-03-02T14:33:54.647Z,75.00
2018-03-02T14:36:21.112Z,73.10
2018-03-02T14:38:47.513Z,74.00
2018-03-02T14:41:14.069Z,74.40
2018-03-02T14:43:40.662Z,74.10
2018-03-02T14:46:07.143Z,74.20
2018-03-02T14:48:33.601Z,73.70
2018-03-02T14:51:01.846Z,72.50
2018-03-02T14:53:28.288Z,72.40
2018-03-02T14:55:54.834Z,72.70
2018-03-02T14:58:21.360Z,72.30
2018-03-02T15:00:47.841Z,72.40
2018-03-02T15:03:14.488Z,74.70
2018-03-02T15:05:41.073Z,74.40
2018-03-02T15:08:07.608Z,71.60
2018-03-02T15:10:34.916Z,70.80
2018-03-02T15:13:02.139Z,71.50
2018-03-02T15:15:28.619Z,71.40
2018-03-02T15:17:55.068Z,70.10
2018-03-02T15:20:21.560Z,69.50
2018-03-02T15:22:48.092Z,70.00
2018-03-02T15:25:14.528Z,69.60
2018-03-02T15:27:41.041Z,69.40
2018-03-02T15:30:07.550Z,69.10
2018-03-02T15:32:34.132Z,70.30
2018-03-02T15:35:00.657Z,68.70
2018-03-02T15:37:27.185Z,68.40
2018-03-02T15:39:54.415Z,69.00
2018-03-02T15:42:20.869Z,68.80
2018-03-02T15:44:47.394Z,68.70
2018-03-02T15:47:13.942Z,69.20
2018-03-02T15:49:40.699Z,68.60
2018-03-02T15:52:07.294Z,69.40
2018-03-02T15:54:33.833Z,69.20
2018-03-02T15:57:00.268Z,68.50
2018-03-02T15:59:26.882Z,69.30
2018-03-02T16:01:54.167Z,68.70
2018-03-02T16:04:20.634Z,68.60
2018-03-02T16:06:47.960Z,69.20
2018-03-02T16:09:14.421Z,69.20
2018-03-02T16:11:41.043Z,68.50
2018-03-02T16:14:07.651Z,68.60
2018-03-02T16:16:34.141Z,68.70
2018-03-02T16:19:00.607Z,69.20
2018-03-02T16:21:27.108Z,69.80
2018-03-02T16:23:53.581Z,70.90
2018-03-02T16:26:20.027Z,70.50
2018-03-02T16:28:46.552Z,69.00
2018-03-02T16:31:13.097Z,69.70
2018-03-02T16:33:39.593Z,69.70
2018-03-02T16:36:06.108Z,71.00
2018-03-02T16:38:33.699Z,70.40
2018-03-02T16:41:01.030Z,70.60
2018-03-02T16:43:27.501Z,70.40
2018-03-02T16:45:54.055Z,70.60
2018-03-02T16:48:20.486Z,70.00
2018-03-02T16:50:47.024Z,69.30
2018-03-02T16:53:13.685Z,69.40
2018-03-02T16:55:41.408Z,69.90
2018-03-02T16:58:07.871Z,70.60
2018-03-02T17:00:34.332Z,70.50
2018-03-02T17:03:01.003Z,69.20
2018-03-02T17:05:27.556Z,70.50
2018-03-02T17:07:53.990Z,71.40
2018-03-02T17:10:21.227Z,69.70
2018-03-02T17:12:48.600Z,70.00
2018-03-02T17:15:15.087Z,70.00
2018-03-02T17:17:42.508Z,69.40
2018-03-02T17:20:09.075Z,69.30
2018-03-02T17:22:36.409Z,68.90
2018-03-02T17:25:03.729Z,68.90
2018-03-02T17:27:30.197Z,68.80
2018-03-02T17:29:56.677Z,69.40
2018-03-02T17:32:24.066Z,68.90
2018-03-02T17:34:50.456Z,68.90
2018-03-02T17:37:17.181Z,68.90
2018-03-02T17:39:43.725Z,68.50
2018-03-02T17:42:10.959Z,68.80
2018-03-02T17:44:38.550Z,69.70
2018-03-02T17:47:05.033Z,69.70
2018-03-02T17:49:31.514Z,68.80
2018-03-02T17:51:58.067Z,69.80
2018-03-02T17:54:24.613Z,70.70
2018-03-02T17:56:51.158Z,70.00
2018-03-02T17:59:17.681Z,69.80
2018-03-02T18:01:44.180Z,70.10
2018-03-02T18:04:11.517Z,69.80
2018-03-02T18:06:38.369Z,69.80
2018-03-02T18:09:05.600Z,69.80
2018-03-02T18:11:32.031Z,69.80
2018-03-02T18:14:00.268Z,70.00
2018-03-02T18:16:32.645Z,70.00
2018-03-02T18:18:59.340Z,70.30
2018-03-02T18:21:25.805Z,71.20
2018-03-02T18:23:52.324Z,71.60
2018-03-02T18:26:19.105Z,71.80
2018-03-02T18:28:45.894Z,71.20
2018-03-02T18:31:13.164Z,70.80
2018-03-02T18:33:39.643Z,70.80
2018-03-02T18:36:06.156Z,71.40
2018-03-02T18:38:32.606Z,72.20
2018-03-02T18:40:59.083Z,72.20
2018-03-02T18:43:25.652Z,72.20
2018-03-02T18:45:52.158Z,72.50
2018-03-02T18:48:19.416Z,74.20
2018-03-02T18:50:45.848Z,74.10
2018-03-02T18:53:13.123Z,72.30
2018-03-02T18:55:39.561Z,72.30
2018-03-02T18:58:06.122Z,72.80
2018-03-02T19:00:32.529Z,72.00
2018-03-02T19:02:59.059Z,72.80
2018-03-02T19:05:25.535Z,71.70
2018-03-02T19:07:52.026Z,71.30
2018-03-02T19:10:18.683Z,71.10
2018-03-02T19:12:45.167Z,70.80
2018-03-02T19:15:12.384Z,71.70
2018-03-02T19:17:38.753Z,71.50
2018-03-02T19:20:05.437Z,69.70
2018-03-02T19:22:32.008Z,69.20
2018-03-02T19:24:59.235Z,67.90
2018-03-02T19:27:26.145Z,67.90
2018-03-02T19:29:53.435Z,67.90
2018-03-02T19:32:20.110Z,67.80
2018-03-02T19:34:46.850Z,67.80
2018-03-02T19:37:13.512Z,67.80
2018-03-02T19:39:41.016Z,67.80
2018-03-02T19:42:07.667Z,67.70
2018-03-02T19:44:34.955Z,67.20
2018-03-02T19:47:02.328Z,67.80
2018-03-02T19:49:28.993Z,67.70
2018-03-02T19:51:55.502Z,67.80
2018-03-02T19:54:22.757Z,67.20
2018-03-02T19:56:49.347Z,67.20
2018-03-02T19:59:15.996Z,66.90
2018-03-02T20:01:42.499Z,66.80
2018-03-02T20:04:09.437Z,67.70
2018-03-02T20:06:36.305Z,67.60
2018-03-02T20:09:02.840Z,67.70
2018-03-02T20:11:29.464Z,67.60
2018-03-02T20:13:55.954Z,68.50
2018-03-02T20:16:23.319Z,68.80
2018-03-02T20:18:49.837Z,68.80
2018-03-02T20:21:16.362Z,70.40
2018-03-02T20:23:43.590Z,69.90
2018-03-02T20:26:10.075Z,69.90
2018-03-02T20:28:37.240Z,71.00
2018-03-02T20:31:04.541Z,71.00
2018-03-02T20:33:31.137Z,70.90
2018-03-02T20:35:57.670Z,71.20
2018-03-02T20:38:24.212Z,72.30
2018-03-02T20:40:50.843Z,72.00
2018-03-02T20:43:17.235Z,72.80
2018-03-02T20:45:43.799Z,73.00
2018-03-02T20:48:10.329Z,73.00
2018-03-02T20:50:37.578Z,72.60
2018-03-02T20:53:04.750Z,72.20
2018-03-02T20:55:32.084Z,72.20
2018-03-02T20:57:59.438Z,72.90
2018-03-02T21:00:25.899Z,72.90
2018-03-02T21:02:53.244Z,72.80
2018-03-02T21:05:20.507Z,73.40
2018-03-02T21:07:46.970Z,73.20
2018-03-02T21:10:13.524Z,73.90
2018-03-02T21:12:39.994Z,74.00
2018-03-02T21:15:07.172Z,75.10
2018-03-02T21:17:33.913Z,75.10
2018-03-02T21:20:01.202Z,75.00
2018-03-02T21:22:27.650Z,74.80
2018-03-02T21:24:54.078Z,74.40
2018-03-02T21:27:20.481Z,74.90
2018-03-02T21:29:46.885Z,75.30
2018-03-02T21:32:14.234Z,75.20
2018-03-02T21:34:41.737Z,75.30
2018-03-02T21:37:08.172Z,75.30
2018-03-02T21:39:34.614Z,75.50
2018-03-02T21:42:01.158Z,75.20
2018-03-02T21:44:27.571Z,75.10
2018-03-02T21:46:54.031Z,75.60
2018-03-02T21:49:20.492Z,75.80
2018-03-02T21:51:47.018Z,75.70
2018-03-02T21:54:14.352Z,76.60
2018-03-02T21:56:40.934Z,76.50
2018-03-02T21:59:07.823Z,77.10
2018-03-02T22:01:34.347Z,76.60
2018-03-02T22:04:00.800Z,77.30
2018-03-02T22:06:27.327Z,76.50
2018-03-02T22:08:53.745Z,76.20
2018-03-02T22:11:20.192Z,76.10
2018-03-02T22:13:46.591Z,76.80
2018-03-02T22:16:13.038Z,76.50
2018-03-02T22:18:39.791Z,76.80
2018-03-02T22:21:07.358Z,76.30
2018-03-02T22:23:33.886Z,76.20
2018-03-02T22:26:00.345Z,75.60
2018-03-02T22:28:26.862Z,76.00
2018-03-02T22:30:53.312Z,75.70
2018-03-02T22:33:19.765Z,75.60
2018-03-02T22:35:46.329Z,74.90
2018-03-02T22:38:13.536Z,75.40
2018-03-02T22:40:40.073Z,75.40
2018-03-02T22:43:13.471Z,75.00
2018-03-02T22:45:39.900Z,75.20
2018-03-02T22:48:06.340Z,75.70
2018-03-02T22:50:32.868Z,76.10
2018-03-02T22:52:59.359Z,76.20
2018-03-02T22:55:25.801Z,76.40
2018-03-02T22:57:52.329Z,76.70
2018-03-02T23:00:18.809Z,76.50
2018-03-02T23:02:45.232Z,76.30
2018-03-02T23:05:11.755Z,75.80
2018-03-02T23:07:38.232Z,76.20
2018-03-02T23:10:04.765Z,77.00
2018-03-02T23:12:31.271Z,76.30
2018-03-02T23:14:57.879Z,75.60
2018-03-02T23:17:24.372Z,75.00
2018-03-02T23:19:50.875Z,75.00
2018-03-02T23:22:17.307Z,75.40
2018-03-02T23:24:43.819Z,75.10
2018-03-02T23:27:10.345Z,76.10
2018-03-02T23:29:36.869Z,75.00
2018-03-02T23:32:03.423Z,74.90
2018-03-02T23:34:29.948Z,75.20
2018-03-02T23:36:56.378Z,74.50
2018-03-02T23:39:23.586Z,74.00
2018-03-02T23:41:50.391Z,74.00
2018-03-02T23:44:16.842Z,74.20
2018-03-02T23:46:43.295Z,74.10
2018-03-02T23:49:10.112Z,74.00
2018-03-02T23:51:36.533Z,74.40
2018-03-02T23:54:02.945Z,75.40
2018-03-02T23:56:29.495Z,75.70
2018-03-02T23:58:56.194Z,75.50
